createdAt,value
2023-03-22T00:00:27.627Z,7.00
2023-03-22T00:02:56.873Z,8.35
2023-03-22T00:05:24.286Z,6.82
2023-03-22T00:07:54.222Z,7.78
2023-03-22T00:10:21.609Z,5.35
2023-03-22T00:12:49.033Z,6.03
2023-03-22T00:15:16.457Z,8.40
2023-03-22T00:17:44.801Z,7.68
2023-03-22T00:20:13.890Z,8.00
2023-03-22T00:22:41.380Z,7.57
2023-03-22T00:25:09.134Z,7.45
2023-03-22T00:27:36.609Z,7.78
2023-03-22T00:30:04.461Z,7.22
2023-03-22T00:32:34.954Z,6.68
2023-03-22T00:35:02.883Z,7.53
2023-03-22T00:37:34.294Z,6.45
2023-03-22T00:40:01.808Z,6.25
2023-03-22T00:42:29.151Z,7.53
2023-03-22T00:44:56.612Z,8.15
2023-03-22T00:47:24.083Z,7.65
2023-03-22T00:49:51.478Z,5.88
2023-03-22T00:52:18.847Z,8.52
2023-03-22T00:54:47.638Z,6.40
2023-03-22T00:57:15.286Z,9.52
2023-03-22T00:59:42.795Z,5.75
2023-03-22T01:02:13.375Z,6.47
2023-03-22T01:04:46.475Z,8.52
2023-03-22T01:07:18.153Z,7.50
2023-03-22T01:09:46.857Z,8.02
2023-03-22T01:12:14.682Z,7.80
2023-03-22T01:14:42.057Z,9.63
2023-03-22T01:17:09.429Z,7.85
2023-03-22T01:19:37.590Z,7.25
2023-03-22T01:22:05.239Z,7.53
2023-03-22T01:24:32.639Z,9.10
2023-03-22T01:27:01.393Z,8.43
2023-03-22T01:29:28.771Z,8.00
2023-03-22T01:31:56.136Z,9.43
2023-03-22T01:34:23.690Z,7.70
2023-03-22T01:36:51.183Z,7.90
2023-03-22T01:39:18.806Z,7.03
2023-03-22T01:41:46.199Z,7.88
2023-03-22T01:44:16.507Z,7.25
2023-03-22T01:46:44.628Z,8.43
2023-03-22T01:49:15.627Z,8.15
2023-03-22T01:51:44.010Z,7.93
2023-03-22T01:54:13.283Z,8.00
2023-03-22T01:56:41.970Z,7.00
2023-03-22T01:59:16.853Z,7.15
2023-03-22T02:01:47.083Z,6.55
2023-03-22T02:04:16.562Z,8.07
2023-03-22T02:06:44.510Z,7.10
2023-03-22T02:09:12.875Z,7.80
2023-03-22T02:11:42.063Z,5.22
2023-03-22T02:14:27.533Z,7.97
2023-03-22T02:17:05.028Z,7.72
2023-03-22T02:19:48.342Z,6.95
2023-03-22T02:22:25.872Z,7.70
2023-03-22T02:25:02.080Z,8.02
2023-03-22T02:27:38.942Z,7.82
2023-03-22T02:30:20.636Z,7.00
2023-03-22T02:33:08.080Z,8.27
2023-03-22T02:35:45.749Z,7.53
2023-03-22T02:38:18.953Z,6.80
2023-03-22T02:40:51.028Z,7.32
2023-03-22T02:43:23.540Z,7.90
2023-03-22T02:45:54.753Z,7.45
2023-03-22T02:48:25.838Z,7.47
2023-03-22T02:50:54.787Z,7.75
2023-03-22T02:53:25.467Z,8.30
2023-03-22T02:55:56.169Z,8.85
2023-03-22T02:58:25.103Z,8.07
2023-03-22T03:00:56.425Z,8.07
2023-03-22T03:03:25.632Z,8.73
2023-03-22T03:05:55.237Z,6.75
2023-03-22T03:08:23.795Z,8.52
2023-03-22T03:10:51.485Z,7.70
2023-03-22T03:13:20.238Z,8.52
2023-03-22T03:15:55.239Z,8.18
2023-03-22T03:18:38.130Z,7.20
2023-03-22T03:21:08.713Z,8.10
2023-03-22T03:23:41.014Z,8.20
2023-03-22T03:26:13.057Z,8.90
2023-03-22T03:28:45.430Z,7.80
2023-03-22T03:31:17.976Z,8.10
2023-03-22T03:33:49.000Z,7.68
2023-03-22T03:36:18.302Z,8.10
2023-03-22T03:38:48.339Z,6.88
2023-03-22T03:41:17.369Z,7.45
2023-03-22T03:43:46.719Z,8.30
2023-03-22T03:46:14.436Z,7.68
2023-03-22T03:48:43.459Z,7.50
2023-03-22T03:51:10.810Z,7.63
2023-03-22T03:53:38.207Z,8.00
2023-03-22T03:56:06.037Z,8.38
2023-03-22T03:58:33.414Z,6.20
2023-03-22T04:01:03.989Z,7.68
2023-03-22T04:03:31.737Z,7.13
2023-03-22T04:05:59.924Z,7.45
2023-03-22T04:08:27.368Z,8.23
2023-03-22T04:10:54.774Z,7.80
2023-03-22T04:13:24.537Z,7.65
2023-03-22T04:18:21.294Z,7.55
2023-03-22T04:20:49.554Z,7.15
2023-03-22T04:23:17.278Z,8.35
2023-03-22T04:25:50.486Z,7.53
2023-03-22T04:28:19.849Z,7.80
2023-03-22T04:30:51.740Z,7.47
2023-03-22T04:33:22.752Z,7.35
2023-03-22T04:35:50.706Z,7.90
2023-03-22T04:38:18.335Z,7.50
2023-03-22T04:40:46.802Z,7.78
2023-03-22T04:43:15.695Z,7.85
2023-03-22T04:45:43.947Z,7.57
2023-03-22T04:48:11.580Z,8.95
2023-03-22T04:50:41.367Z,7.47
2023-03-22T04:53:09.852Z,8.35
2023-03-22T04:55:37.264Z,8.38
2023-03-22T04:58:04.631Z,8.30
2023-03-22T05:00:32.009Z,8.18
2023-03-22T05:02:59.464Z,8.32
2023-03-22T05:05:26.834Z,8.38
2023-03-22T05:07:56.271Z,8.23
2023-03-22T05:10:23.921Z,8.65
2023-03-22T05:12:51.291Z,8.27
2023-03-22T05:15:18.638Z,9.45
2023-03-22T05:17:45.997Z,8.63
2023-03-22T05:20:13.545Z,8.15
2023-03-22T05:22:41.409Z,8.02
2023-03-22T05:25:11.494Z,6.57
2023-03-22T05:27:39.060Z,8.02
2023-03-22T05:30:07.364Z,7.50
2023-03-22T05:32:37.606Z,8.15
2023-03-22T05:35:05.212Z,8.85
2023-03-22T05:37:32.962Z,8.93
2023-03-22T05:40:00.363Z,8.02
2023-03-22T05:42:29.070Z,8.43
2023-03-22T05:44:56.510Z,8.77
2023-03-22T05:47:23.845Z,8.88
2023-03-22T05:49:51.207Z,7.18
2023-03-22T05:52:18.588Z,8.75
2023-03-22T05:54:46.233Z,7.85
2023-03-22T05:57:13.581Z,9.18
2023-03-22T05:59:42.304Z,8.38
2023-03-22T06:02:09.682Z,9.13
2023-03-22T06:04:37.176Z,9.00
2023-03-22T06:07:04.694Z,9.73
2023-03-22T06:09:35.176Z,8.73
2023-03-22T06:12:02.633Z,10.07
2023-03-22T06:14:29.968Z,9.07
2023-03-22T06:16:58.901Z,9.43
2023-03-22T06:19:26.479Z,8.50
2023-03-22T06:21:54.523Z,8.50
2023-03-22T06:24:22.788Z,9.15
2023-03-22T06:26:50.492Z,7.97
2023-03-22T06:29:17.847Z,8.98
2023-03-22T06:31:45.362Z,8.18
2023-03-22T06:34:14.067Z,8.82
2023-03-22T06:36:42.371Z,8.25
2023-03-22T06:39:09.946Z,8.70
2023-03-22T06:41:37.625Z,7.63
2023-03-22T06:44:05.254Z,8.63
2023-03-22T06:46:32.826Z,8.20
2023-03-22T06:49:00.386Z,7.25
2023-03-22T06:51:29.228Z,7.90
2023-03-22T06:53:56.928Z,7.90
2023-03-22T06:56:24.425Z,8.77
2023-03-22T06:58:52.430Z,7.78
2023-03-22T07:01:20.087Z,6.63
2023-03-22T07:03:47.565Z,7.15
2023-03-22T07:06:14.941Z,7.45
2023-03-22T07:08:43.770Z,7.93
2023-03-22T07:11:11.148Z,6.97
2023-03-22T07:13:38.506Z,7.20
2023-03-22T07:16:06.339Z,7.75
2023-03-22T07:18:33.743Z,7.07
2023-03-22T07:21:01.051Z,7.40
2023-03-22T07:23:28.412Z,7.35
2023-03-22T07:25:59.175Z,6.35
2023-03-22T07:28:26.883Z,7.38
2023-03-22T07:31:00.305Z,7.47
2023-03-22T07:33:27.680Z,7.68
2023-03-22T07:35:55.100Z,7.75
2023-03-22T07:38:22.621Z,7.47
2023-03-22T07:40:54.535Z,7.32
2023-03-22T07:43:23.842Z,7.20
2023-03-22T07:45:51.554Z,7.85
2023-03-22T07:48:19.009Z,6.05
2023-03-22T07:50:46.911Z,7.80
2023-03-22T07:53:14.586Z,7.93
2023-03-22T07:55:42.211Z,6.65
2023-03-22T07:58:09.567Z,7.45
2023-03-22T08:00:38.612Z,7.80
2023-03-22T08:03:06.334Z,7.75
2023-03-22T08:05:33.823Z,7.72
2023-03-22T08:08:01.268Z,7.15
2023-03-22T08:10:28.842Z,6.90
2023-03-22T08:12:56.586Z,7.30
2023-03-22T08:15:24.032Z,6.75
2023-03-22T08:17:52.827Z,8.15
2023-03-22T08:20:20.263Z,8.10
2023-03-22T08:22:47.655Z,7.05
2023-03-22T08:25:15.333Z,7.88
2023-03-22T08:27:42.728Z,6.05
2023-03-22T08:30:11.038Z,7.47
2023-03-22T08:32:38.381Z,7.03
2023-03-22T08:35:07.634Z,6.60
2023-03-22T08:37:35.191Z,7.13
2023-03-22T08:40:02.628Z,6.97
2023-03-22T08:42:30.194Z,7.05
2023-03-22T08:44:57.559Z,6.45
2023-03-22T08:47:24.937Z,7.15
2023-03-22T08:49:52.266Z,6.88
2023-03-22T08:52:20.931Z,6.95
2023-03-22T08:54:48.428Z,6.70
2023-03-22T08:57:16.536Z,6.70
2023-03-22T08:59:43.871Z,6.60
2023-03-22T09:02:11.312Z,5.88
2023-03-22T09:04:38.735Z,5.32
2023-03-22T09:07:06.228Z,5.22
2023-03-22T09:09:34.971Z,5.28
2023-03-22T09:12:02.297Z,6.28
2023-03-22T09:14:29.681Z,7.47
2023-03-22T09:16:57.282Z,7.55
2023-03-22T09:19:24.714Z,9.13
2023-03-22T09:21:52.069Z,12.85
2023-03-22T09:24:19.777Z,8.02
2023-03-22T09:26:48.466Z,6.47
2023-03-22T09:29:16.046Z,6.00
2023-03-22T09:31:43.473Z,4.55
2023-03-22T09:34:10.844Z,5.25
2023-03-22T09:36:38.257Z,4.93
2023-03-22T09:39:07.498Z,3.97
2023-03-22T09:44:05.121Z,3.83
2023-03-22T09:46:35.012Z,3.67
2023-03-22T09:49:03.687Z,3.13
2023-03-22T09:51:34.417Z,3.38
2023-03-22T09:54:01.801Z,3.15
2023-03-22T09:56:30.916Z,2.88
2023-03-22T09:59:03.641Z,2.88
2023-03-22T10:01:37.717Z,2.72
2023-03-22T10:04:26.161Z,2.67
2023-03-22T10:06:59.847Z,2.78
2023-03-22T10:09:29.595Z,2.13
2023-03-22T10:12:00.311Z,2.67
2023-03-22T10:14:30.855Z,2.28
2023-03-22T10:17:03.636Z,2.58
2023-03-22T10:19:34.979Z,2.53
2023-03-22T10:22:02.747Z,2.00
2023-03-22T10:24:31.340Z,2.45
2023-03-22T10:26:58.758Z,2.38
2023-03-22T10:29:30.413Z,2.17
2023-03-22T10:32:07.246Z,2.47
2023-03-22T10:34:35.867Z,2.92
2023-03-22T10:37:05.283Z,2.60
2023-03-22T10:39:33.710Z,2.17
2023-03-22T10:42:02.895Z,2.58
2023-03-22T10:44:31.356Z,2.15
2023-03-22T10:47:07.210Z,2.50
2023-03-22T10:49:36.715Z,2.03
2023-03-22T10:52:05.511Z,2.28
2023-03-22T10:54:32.908Z,2.20
2023-03-22T10:57:00.275Z,2.10
2023-03-22T10:59:44.939Z,2.03
2023-03-22T11:02:20.149Z,2.15
2023-03-22T11:04:48.589Z,1.90
2023-03-22T11:07:26.862Z,1.80
2023-03-22T11:09:58.897Z,2.97
2023-03-22T11:12:26.259Z,3.75
2023-03-22T11:14:53.737Z,1.95
2023-03-22T11:17:23.734Z,2.60
2023-03-22T11:19:52.528Z,2.13
2023-03-22T11:22:24.374Z,2.05
2023-03-22T11:24:52.319Z,2.42
2023-03-22T11:27:21.451Z,3.33
2023-03-22T11:29:49.980Z,3.03
2023-03-22T11:32:23.449Z,2.53
2023-03-22T11:34:59.945Z,2.00
2023-03-22T11:37:27.434Z,2.42
2023-03-22T11:40:00.155Z,2.00
2023-03-22T11:42:27.813Z,2.17
2023-03-22T11:44:55.966Z,3.25
2023-03-22T11:47:26.114Z,3.10
2023-03-22T11:49:54.499Z,3.67
2023-03-22T11:52:24.029Z,4.10
2023-03-22T11:57:21.915Z,3.85
2023-03-22T11:59:51.131Z,3.13
2023-03-22T12:02:21.178Z,2.85
2023-03-22T12:04:51.701Z,3.40
2023-03-22T12:07:21.608Z,4.32
2023-03-22T12:09:52.864Z,4.28
2023-03-22T12:12:21.670Z,3.33
2023-03-22T12:14:52.577Z,3.38
2023-03-22T12:17:25.630Z,2.30
2023-03-22T12:19:58.882Z,2.58
2023-03-22T12:22:29.012Z,2.35
2023-03-22T12:24:56.384Z,2.50
2023-03-22T12:27:25.457Z,2.35
2023-03-22T12:29:55.680Z,2.28
2023-03-22T12:32:25.892Z,2.10
2023-03-22T12:34:57.958Z,2.55
2023-03-22T12:37:40.154Z,2.15
2023-03-22T12:40:09.562Z,2.28
2023-03-22T12:42:47.878Z,2.05
2023-03-22T12:45:21.882Z,2.45
2023-03-22T12:47:51.575Z,2.65
2023-03-22T12:50:20.697Z,2.45
2023-03-22T12:52:50.763Z,1.50
2023-03-22T12:55:21.432Z,1.85
2023-03-22T12:57:52.313Z,2.25
2023-03-22T13:00:20.662Z,2.10
2023-03-22T13:02:49.907Z,2.13
2023-03-22T13:05:18.400Z,2.10
2023-03-22T13:07:55.120Z,2.00
2023-03-22T13:10:41.524Z,1.95
2023-03-22T13:13:19.861Z,1.98
2023-03-22T13:16:06.513Z,1.48
2023-03-22T13:18:42.621Z,2.08
2023-03-22T13:21:11.544Z,1.95
2023-03-22T13:23:53.942Z,1.60
2023-03-22T13:26:24.058Z,1.90
2023-03-22T13:28:59.084Z,1.73
2023-03-22T13:31:38.868Z,1.50
2023-03-22T13:34:15.689Z,1.90
2023-03-22T13:36:50.029Z,1.80
2023-03-22T13:39:19.270Z,1.65
2023-03-22T13:41:48.427Z,2.50
2023-03-22T13:44:26.803Z,1.75
2023-03-22T13:46:54.573Z,1.90
2023-03-22T13:49:55.953Z,2.10
2023-03-22T13:52:25.126Z,1.80
2023-03-22T13:54:54.834Z,2.40
2023-03-22T13:57:37.594Z,2.25
2023-03-22T14:00:14.379Z,1.90
2023-03-22T14:02:43.287Z,2.67
2023-03-22T14:05:16.370Z,2.22
2023-03-22T14:07:45.037Z,2.20
2023-03-22T14:10:15.590Z,2.30
2023-03-22T14:12:49.521Z,2.00
2023-03-22T14:15:18.885Z,2.10
2023-03-22T14:17:49.419Z,1.90
2023-03-22T14:20:19.206Z,2.28
